sensor_id;sensor_type;location;lat;lon;timestamp;P1;durP1;ratioP1;P2;durP2;ratioP2
4122;SDS011;2075;51.062;6.920;2023-07-28T00:02:24;1.87;;;1.60;;
4122;SDS011;2075;51.062;6.920;2023-07-28T00:05:09;1.60;;;1.60;;
4122;SDS011;2075;51.062;6.920;2023-07-28T00:07:55;1.70;;;1.70;;
4122;SDS011;2075;51.062;6.920;2023-07-28T00:10:40;4.33;;;3.10;;
4122;SDS011;2075;51.062;6.920;2023-07-28T00:13:26;1.70;;;1.60;;
4122;SDS011;2075;51.062;6.920;2023-07-28T00:16:11;2.53;;;1.80;;
4122;SDS011;2075;51.062;6.920;2023-07-28T00:18:58;1.93;;;1.83;;
4122;SDS011;2075;51.062;6.920;2023-07-28T00:21:43;2.70;;;1.90;;
4122;SDS011;2075;51.062;6.920;2023-07-28T00:24:29;2.10;;;2.00;;
4122;SDS011;2075;51.062;6.920;2023-07-28T00:27:14;1.50;;;1.50;;
4122;SDS011;2075;51.062;6.920;2023-07-28T00:29:59;2.03;;;1.70;;
4122;SDS011;2075;51.062;6.920;2023-07-28T00:32:45;2.07;;;1.90;;
4122;SDS011;2075;51.062;6.920;2023-07-28T00:35:32;1.87;;;1.77;;
4122;SDS011;2075;51.062;6.920;2023-07-28T00:38:18;7.03;;;1.83;;
4122;SDS011;2075;51.062;6.920;2023-07-28T00:41:03;1.70;;;1.60;;
4122;SDS011;2075;51.062;6.920;2023-07-28T00:43:49;1.40;;;1.40;;
4122;SDS011;2075;51.062;6.920;2023-07-28T00:46:34;2.43;;;2.00;;
4122;SDS011;2075;51.062;6.920;2023-07-28T00:49:20;1.70;;;1.60;;
4122;SDS011;2075;51.062;6.920;2023-07-28T00:52:07;2.50;;;1.80;;
4122;SDS011;2075;51.062;6.920;2023-07-28T00:54:53;2.07;;;1.37;;
4122;SDS011;2075;51.062;6.920;2023-07-28T00:57:38;2.47;;;1.93;;
4122;SDS011;2075;51.062;6.920;2023-07-28T01:00:24;1.93;;;1.83;;
4122;SDS011;2075;51.062;6.920;2023-07-28T01:03:09;3.03;;;1.70;;
4122;SDS011;2075;51.062;6.920;2023-07-28T01:05:55;1.73;;;1.63;;
4122;SDS011;2075;51.062;6.920;2023-07-28T01:08:59;4.23;;;1.50;;
4122;SDS011;2075;51.062;6.920;2023-07-28T01:11:54;3.30;;;1.90;;
4122;SDS011;2075;51.062;6.920;2023-07-28T01:14:40;2.40;;;1.60;;
4122;SDS011;2075;51.062;6.920;2023-07-28T01:17:25;3.23;;;1.30;;
4122;SDS011;2075;51.062;6.920;2023-07-28T01:20:11;1.77;;;1.67;;
4122;SDS011;2075;51.062;6.920;2023-07-28T01:23:05;2.37;;;1.87;;
4122;SDS011;2075;51.062;6.920;2023-07-28T01:25:58;1.60;;;1.60;;
4122;SDS011;2075;51.062;6.920;2023-07-28T01:28:51;2.43;;;1.60;;
4122;SDS011;2075;51.062;6.920;2023-07-28T01:31:38;2.27;;;1.50;;
4122;SDS011;2075;51.062;6.920;2023-07-28T01:34:24;1.70;;;1.60;;
4122;SDS011;2075;51.062;6.920;2023-07-28T01:37:09;1.43;;;1.33;;
4122;SDS011;2075;51.062;6.920;2023-07-28T01:39:55;2.63;;;1.90;;
4122;SDS011;2075;51.062;6.920;2023-07-28T01:42:41;2.13;;;1.70;;
4122;SDS011;2075;51.062;6.920;2023-07-28T01:45:27;4.53;;;1.70;;
4122;SDS011;2075;51.062;6.920;2023-07-28T01:48:13;2.50;;;1.60;;
4122;SDS011;2075;51.062;6.920;2023-07-28T01:50:58;2.90;;;1.53;;
4122;SDS011;2075;51.062;6.920;2023-07-28T01:53:44;4.70;;;1.67;;
4122;SDS011;2075;51.062;6.920;2023-07-28T01:56:29;1.73;;;1.73;;
4122;SDS011;2075;51.062;6.920;2023-07-28T01:59:16;2.03;;;1.90;;
4122;SDS011;2075;51.062;6.920;2023-07-28T02:02:02;3.20;;;1.63;;
4122;SDS011;2075;51.062;6.920;2023-07-28T02:04:48;2.73;;;1.57;;
4122;SDS011;2075;51.062;6.920;2023-07-28T02:07:33;1.83;;;1.80;;
4122;SDS011;2075;51.062;6.920;2023-07-28T02:10:19;2.00;;;1.90;;
4122;SDS011;2075;51.062;6.920;2023-07-28T02:13:07;2.10;;;1.90;;
4122;SDS011;2075;51.062;6.920;2023-07-28T02:15:52;2.30;;;1.60;;
4122;SDS011;2075;51.062;6.920;2023-07-28T02:18:39;2.87;;;1.60;;
4122;SDS011;2075;51.062;6.920;2023-07-28T02:21:24;2.23;;;2.13;;
4122;SDS011;2075;51.062;6.920;2023-07-28T02:24:11;1.87;;;1.77;;
4122;SDS011;2075;51.062;6.920;2023-07-28T02:26:57;4.07;;;2.10;;
4122;SDS011;2075;51.062;6.920;2023-07-28T02:29:44;3.23;;;1.83;;
4122;SDS011;2075;51.062;6.920;2023-07-28T02:32:29;6.43;;;2.13;;
4122;SDS011;2075;51.062;6.920;2023-07-28T02:35:16;4.70;;;1.90;;
4122;SDS011;2075;51.062;6.920;2023-07-28T02:38:01;1.90;;;1.80;;
4122;SDS011;2075;51.062;6.920;2023-07-28T02:40:47;3.03;;;1.83;;
4122;SDS011;2075;51.062;6.920;2023-07-28T02:43:32;1.50;;;1.47;;
4122;SDS011;2075;51.062;6.920;2023-07-28T02:46:18;1.63;;;1.60;;
4122;SDS011;2075;51.062;6.920;2023-07-28T02:49:04;2.60;;;2.17;;
4122;SDS011;2075;51.062;6.920;2023-07-28T02:51:51;1.90;;;1.80;;
4122;SDS011;2075;51.062;6.920;2023-07-28T02:54:36;1.97;;;1.87;;
4122;SDS011;2075;51.062;6.920;2023-07-28T02:57:22;5.13;;;2.10;;
4122;SDS011;2075;51.062;6.920;2023-07-28T03:00:08;1.67;;;1.57;;
4122;SDS011;2075;51.062;6.920;2023-07-28T03:02:54;1.90;;;1.80;;
4122;SDS011;2075;51.062;6.920;2023-07-28T03:05:40;1.80;;;1.70;;
4122;SDS011;2075;51.062;6.920;2023-07-28T03:08:40;1.87;;;1.77;;
4122;SDS011;2075;51.062;6.920;2023-07-28T03:11:48;2.47;;;2.27;;
4122;SDS011;2075;51.062;6.920;2023-07-28T03:14:34;1.80;;;1.80;;
4122;SDS011;2075;51.062;6.920;2023-07-28T03:17:20;1.93;;;1.83;;
4122;SDS011;2075;51.062;6.920;2023-07-28T03:20:05;4.10;;;2.47;;
4122;SDS011;2075;51.062;6.920;2023-07-28T03:22:51;4.57;;;1.67;;
4122;SDS011;2075;51.062;6.920;2023-07-28T03:25:39;4.20;;;2.10;;
4122;SDS011;2075;51.062;6.920;2023-07-28T03:28:25;1.60;;;1.60;;
4122;SDS011;2075;51.062;6.920;2023-07-28T03:31:10;3.00;;;2.13;;
4122;SDS011;2075;51.062;6.920;2023-07-28T03:33:55;6.43;;;2.20;;
4122;SDS011;2075;51.062;6.920;2023-07-28T03:36:43;4.23;;;3.83;;
4122;SDS011;2075;51.062;6.920;2023-07-28T03:39:29;3.70;;;2.37;;
4122;SDS011;2075;51.062;6.920;2023-07-28T03:42:16;2.23;;;2.07;;
4122;SDS011;2075;51.062;6.920;2023-07-28T03:45:01;9.40;;;6.30;;
4122;SDS011;2075;51.062;6.920;2023-07-28T03:47:46;2.60;;;2.40;;
4122;SDS011;2075;51.062;6.920;2023-07-28T03:50:32;7.00;;;2.10;;
4122;SDS011;2075;51.062;6.920;2023-07-28T03:53:17;2.17;;;2.07;;
4122;SDS011;2075;51.062;6.920;2023-07-28T03:56:03;2.30;;;2.20;;
4122;SDS011;2075;51.062;6.920;2023-07-28T03:58:50;3.53;;;3.07;;
4122;SDS011;2075;51.062;6.920;2023-07-28T04:01:37;4.20;;;3.90;;
4122;SDS011;2075;51.062;6.920;2023-07-28T04:04:22;2.40;;;2.30;;
4122;SDS011;2075;51.062;6.920;2023-07-28T04:07:07;2.40;;;2.33;;
4122;SDS011;2075;51.062;6.920;2023-07-28T04:09:53;2.53;;;2.37;;
4122;SDS011;2075;51.062;6.920;2023-07-28T04:12:38;2.17;;;2.10;;
4122;SDS011;2075;51.062;6.920;2023-07-28T04:15:25;4.17;;;2.80;;
4122;SDS011;2075;51.062;6.920;2023-07-28T04:18:10;2.43;;;2.33;;
4122;SDS011;2075;51.062;6.920;2023-07-28T04:20:56;2.40;;;2.20;;
4122;SDS011;2075;51.062;6.920;2023-07-28T04:23:41;2.10;;;2.00;;
4122;SDS011;2075;51.062;6.920;2023-07-28T04:26:27;6.00;;;5.27;;
4122;SDS011;2075;51.062;6.920;2023-07-28T04:29:21;2.87;;;2.77;;
4122;SDS011;2075;51.062;6.920;2023-07-28T04:32:08;8.57;;;2.70;;
4122;SDS011;2075;51.062;6.920;2023-07-28T04:34:53;4.03;;;3.00;;
4122;SDS011;2075;51.062;6.920;2023-07-28T04:37:58;3.03;;;2.17;;
4122;SDS011;2075;51.062;6.920;2023-07-28T04:40:55;7.23;;;2.30;;
4122;SDS011;2075;51.062;6.920;2023-07-28T04:43:53;2.07;;;1.97;;
4122;SDS011;2075;51.062;6.920;2023-07-28T04:46:40;2.43;;;2.23;;
4122;SDS011;2075;51.062;6.920;2023-07-28T04:49:32;3.83;;;2.20;;
4122;SDS011;2075;51.062;6.920;2023-07-28T04:52:26;3.47;;;2.10;;
4122;SDS011;2075;51.062;6.920;2023-07-28T04:55:29;2.40;;;2.30;;
4122;SDS011;2075;51.062;6.920;2023-07-28T04:58:15;2.10;;;1.80;;
4122;SDS011;2075;51.062;6.920;2023-07-28T05:01:05;6.20;;;2.20;;
4122;SDS011;2075;51.062;6.920;2023-07-28T05:03:53;2.20;;;2.10;;
4122;SDS011;2075;51.062;6.920;2023-07-28T05:06:45;2.13;;;2.03;;
4122;SDS011;2075;51.062;6.920;2023-07-28T05:09:30;2.00;;;1.67;;
4122;SDS011;2075;51.062;6.920;2023-07-28T05:12:16;2.20;;;2.00;;
4122;SDS011;2075;51.062;6.920;2023-07-28T05:15:05;6.70;;;2.10;;
4122;SDS011;2075;51.062;6.920;2023-07-28T05:17:55;2.43;;;2.30;;
4122;SDS011;2075;51.062;6.920;2023-07-28T05:21:01;1.80;;;1.73;;
4122;SDS011;2075;51.062;6.920;2023-07-28T05:23:48;2.13;;;2.10;;
4122;SDS011;2075;51.062;6.920;2023-07-28T05:26:34;2.70;;;2.07;;
4122;SDS011;2075;51.062;6.920;2023-07-28T05:29:20;1.90;;;1.80;;
4122;SDS011;2075;51.062;6.920;2023-07-28T05:32:06;1.40;;;1.40;;
4122;SDS011;2075;51.062;6.920;2023-07-28T05:35:00;2.80;;;2.10;;
4122;SDS011;2075;51.062;6.920;2023-07-28T05:37:46;1.97;;;1.77;;
4122;SDS011;2075;51.062;6.920;2023-07-28T05:40:33;2.43;;;2.23;;
4122;SDS011;2075;51.062;6.920;2023-07-28T05:43:18;4.20;;;3.20;;
4122;SDS011;2075;51.062;6.920;2023-07-28T05:46:04;2.47;;;2.10;;
4122;SDS011;2075;51.062;6.920;2023-07-28T05:48:53;2.87;;;1.73;;
4122;SDS011;2075;51.062;6.920;2023-07-28T05:51:38;1.87;;;1.77;;
4122;SDS011;2075;51.062;6.920;2023-07-28T05:54:24;2.73;;;1.80;;
4122;SDS011;2075;51.062;6.920;2023-07-28T05:57:11;2.00;;;1.70;;
4122;SDS011;2075;51.062;6.920;2023-07-28T05:59:56;2.00;;;1.90;;
4122;SDS011;2075;51.062;6.920;2023-07-28T06:02:42;2.10;;;1.50;;
4122;SDS011;2075;51.062;6.920;2023-07-28T06:05:36;1.97;;;1.70;;
4122;SDS011;2075;51.062;6.920;2023-07-28T06:08:23;1.57;;;1.47;;
4122;SDS011;2075;51.062;6.920;2023-07-28T06:11:08;2.33;;;1.60;;
4122;SDS011;2075;51.062;6.920;2023-07-28T06:13:56;1.80;;;1.70;;
4122;SDS011;2075;51.062;6.920;2023-07-28T06:16:45;1.90;;;1.80;;
4122;SDS011;2075;51.062;6.920;2023-07-28T06:19:31;4.83;;;2.00;;
4122;SDS011;2075;51.062;6.920;2023-07-28T06:22:16;4.23;;;2.20;;
4122;SDS011;2075;51.062;6.920;2023-07-28T06:25:03;1.90;;;1.80;;
4122;SDS011;2075;51.062;6.920;2023-07-28T06:27:49;3.20;;;2.80;;
4122;SDS011;2075;51.062;6.920;2023-07-28T06:30:36;3.50;;;1.97;;
4122;SDS011;2075;51.062;6.920;2023-07-28T06:33:22;2.07;;;1.97;;
4122;SDS011;2075;51.062;6.920;2023-07-28T06:36:09;1.90;;;1.80;;
4122;SDS011;2075;51.062;6.920;2023-07-28T06:38:55;2.77;;;1.70;;
4122;SDS011;2075;51.062;6.920;2023-07-28T06:41:40;1.87;;;1.73;;
4122;SDS011;2075;51.062;6.920;2023-07-28T06:44:28;1.80;;;1.70;;
4122;SDS011;2075;51.062;6.920;2023-07-28T06:47:15;4.53;;;1.97;;
4122;SDS011;2075;51.062;6.920;2023-07-28T06:50:00;1.90;;;1.80;;
4122;SDS011;2075;51.062;6.920;2023-07-28T06:52:46;3.20;;;2.43;;
4122;SDS011;2075;51.062;6.920;2023-07-28T06:55:38;3.47;;;2.03;;
4122;SDS011;2075;51.062;6.920;2023-07-28T06:58:23;6.67;;;5.73;;
4122;SDS011;2075;51.062;6.920;2023-07-28T07:01:09;3.40;;;2.30;;
4122;SDS011;2075;51.062;6.920;2023-07-28T07:03:57;3.80;;;2.30;;
4122;SDS011;2075;51.062;6.920;2023-07-28T07:06:43;4.63;;;2.27;;
4122;SDS011;2075;51.062;6.920;2023-07-28T07:09:28;2.87;;;2.20;;
4122;SDS011;2075;51.062;6.920;2023-07-28T07:12:15;3.33;;;2.00;;
4122;SDS011;2075;51.062;6.920;2023-07-28T07:15:01;2.60;;;2.40;;
4122;SDS011;2075;51.062;6.920;2023-07-28T07:17:47;2.37;;;2.17;;
4122;SDS011;2075;51.062;6.920;2023-07-28T07:20:35;5.60;;;2.40;;
4122;SDS011;2075;51.062;6.920;2023-07-28T07:23:20;2.40;;;2.20;;
4122;SDS011;2075;51.062;6.920;2023-07-28T07:26:09;3.10;;;2.60;;
4122;SDS011;2075;51.062;6.920;2023-07-28T07:28:55;4.60;;;2.80;;
4122;SDS011;2075;51.062;6.920;2023-07-28T07:31:41;2.80;;;2.57;;
4122;SDS011;2075;51.062;6.920;2023-07-28T07:34:28;3.13;;;2.80;;
4122;SDS011;2075;51.062;6.920;2023-07-28T07:37:15;3.23;;;2.70;;
4122;SDS011;2075;51.062;6.920;2023-07-28T07:40:00;6.00;;;2.60;;
4122;SDS011;2075;51.062;6.920;2023-07-28T07:42:47;3.67;;;3.07;;
4122;SDS011;2075;51.062;6.920;2023-07-28T07:45:33;4.83;;;4.37;;
4122;SDS011;2075;51.062;6.920;2023-07-28T07:48:19;6.70;;;2.93;;
4122;SDS011;2075;51.062;6.920;2023-07-28T07:51:06;3.77;;;3.47;;
4122;SDS011;2075;51.062;6.920;2023-07-28T07:53:54;3.57;;;3.23;;
4122;SDS011;2075;51.062;6.920;2023-07-28T07:56:39;8.50;;;3.67;;
4122;SDS011;2075;51.062;6.920;2023-07-28T07:59:25;3.97;;;3.63;;
4122;SDS011;2075;51.062;6.920;2023-07-28T08:02:14;8.57;;;3.47;;
4122;SDS011;2075;51.062;6.920;2023-07-28T08:05:00;3.00;;;2.90;;
4122;SDS011;2075;51.062;6.920;2023-07-28T08:07:46;4.00;;;3.00;;
4122;SDS011;2075;51.062;6.920;2023-07-28T08:10:33;3.47;;;2.90;;
4122;SDS011;2075;51.062;6.920;2023-07-28T08:13:19;3.33;;;2.93;;
4122;SDS011;2075;51.062;6.920;2023-07-28T08:16:04;3.73;;;2.93;;
4122;SDS011;2075;51.062;6.920;2023-07-28T08:18:50;4.53;;;3.17;;
4122;SDS011;2075;51.062;6.920;2023-07-28T08:21:36;3.50;;;3.30;;
4122;SDS011;2075;51.062;6.920;2023-07-28T08:24:21;4.77;;;3.83;;
4122;SDS011;2075;51.062;6.920;2023-07-28T08:27:08;3.37;;;2.70;;
4122;SDS011;2075;51.062;6.920;2023-07-28T08:29:54;3.63;;;3.33;;
4122;SDS011;2075;51.062;6.920;2023-07-28T08:32:39;7.60;;;3.57;;
4122;SDS011;2075;51.062;6.920;2023-07-28T08:35:25;3.50;;;3.30;;
4122;SDS011;2075;51.062;6.920;2023-07-28T08:38:11;3.60;;;3.20;;
4122;SDS011;2075;51.062;6.920;2023-07-28T08:40:56;7.43;;;3.67;;
4122;SDS011;2075;51.062;6.920;2023-07-28T08:43:45;7.33;;;3.97;;
4122;SDS011;2075;51.062;6.920;2023-07-28T08:46:30;3.60;;;3.40;;
4122;SDS011;2075;51.062;6.920;2023-07-28T08:49:17;4.77;;;4.20;;
4122;SDS011;2075;51.062;6.920;2023-07-28T08:52:03;2.90;;;2.70;;
4122;SDS011;2075;51.062;6.920;2023-07-28T08:54:50;4.33;;;4.03;;
4122;SDS011;2075;51.062;6.920;2023-07-28T08:57:36;3.00;;;2.90;;
4122;SDS011;2075;51.062;6.920;2023-07-28T09:00:23;3.70;;;2.97;;
4122;SDS011;2075;51.062;6.920;2023-07-28T09:03:09;3.50;;;3.30;;
4122;SDS011;2075;51.062;6.920;2023-07-28T09:05:58;4.00;;;3.40;;
4122;SDS011;2075;51.062;6.920;2023-07-28T09:08:45;3.53;;;2.70;;
4122;SDS011;2075;51.062;6.920;2023-07-28T09:11:30;3.03;;;2.80;;
4122;SDS011;2075;51.062;6.920;2023-07-28T09:14:17;4.23;;;2.63;;
4122;SDS011;2075;51.062;6.920;2023-07-28T09:17:08;2.83;;;2.40;;
4122;SDS011;2075;51.062;6.920;2023-07-28T09:19:55;2.80;;;2.23;;
4122;SDS011;2075;51.062;6.920;2023-07-28T09:22:41;3.17;;;2.40;;
4122;SDS011;2075;51.062;6.920;2023-07-28T09:25:28;2.50;;;2.30;;
4122;SDS011;2075;51.062;6.920;2023-07-28T09:28:14;2.20;;;2.03;;
4122;SDS011;2075;51.062;6.920;2023-07-28T09:31:00;2.17;;;2.10;;
4122;SDS011;2075;51.062;6.920;2023-07-28T09:33:50;2.37;;;2.20;;
4122;SDS011;2075;51.062;6.920;2023-07-28T09:36:36;2.70;;;2.60;;
4122;SDS011;2075;51.062;6.920;2023-07-28T09:39:22;4.47;;;4.17;;
4122;SDS011;2075;51.062;6.920;2023-07-28T09:42:09;2.20;;;2.10;;
4122;SDS011;2075;51.062;6.920;2023-07-28T09:44:56;2.20;;;2.10;;
4122;SDS011;2075;51.062;6.920;2023-07-28T09:47:43;2.10;;;2.10;;
4122;SDS011;2075;51.062;6.920;2023-07-28T09:50:32;2.57;;;2.00;;
4122;SDS011;2075;51.062;6.920;2023-07-28T09:53:19;2.00;;;2.00;;
4122;SDS011;2075;51.062;6.920;2023-07-28T09:56:05;2.00;;;1.90;;
4122;SDS011;2075;51.062;6.920;2023-07-28T09:58:52;2.10;;;2.00;;
4122;SDS011;2075;51.062;6.920;2023-07-28T10:01:38;2.30;;;2.20;;
4122;SDS011;2075;51.062;6.920;2023-07-28T10:04:24;1.97;;;1.97;;
4122;SDS011;2075;51.062;6.920;2023-07-28T10:07:11;1.87;;;1.87;;
4122;SDS011;2075;51.062;6.920;2023-07-28T10:09:57;1.90;;;1.80;;
4122;SDS011;2075;51.062;6.920;2023-07-28T10:12:45;2.10;;;2.00;;
4122;SDS011;2075;51.062;6.920;2023-07-28T10:15:33;2.03;;;1.83;;
4122;SDS011;2075;51.062;6.920;2023-07-28T10:18:19;2.30;;;1.80;;
4122;SDS011;2075;51.062;6.920;2023-07-28T10:21:06;2.37;;;2.27;;
4122;SDS011;2075;51.062;6.920;2023-07-28T10:23:58;2.30;;;2.20;;
4122;SDS011;2075;51.062;6.920;2023-07-28T10:26:45;4.43;;;2.17;;
4122;SDS011;2075;51.062;6.920;2023-07-28T10:29:31;2.60;;;2.20;;
4122;SDS011;2075;51.062;6.920;2023-07-28T10:32:25;2.07;;;1.93;;
4122;SDS011;2075;51.062;6.920;2023-07-28T10:35:21;2.57;;;2.37;;
4122;SDS011;2075;51.062;6.920;2023-07-28T10:41:21;2.90;;;2.70;;
4122;SDS011;2075;51.062;6.920;2023-07-28T10:44:07;3.00;;;2.90;;
4122;SDS011;2075;51.062;6.920;2023-07-28T10:46:53;3.00;;;2.80;;
4122;SDS011;2075;51.062;6.920;2023-07-28T10:49:39;2.70;;;2.50;;
4122;SDS011;2075;51.062;6.920;2023-07-28T10:52:25;6.10;;;5.23;;
4122;SDS011;2075;51.062;6.920;2023-07-28T10:55:12;4.97;;;2.90;;
4122;SDS011;2075;51.062;6.920;2023-07-28T10:58:00;2.30;;;2.20;;
4122;SDS011;2075;51.062;6.920;2023-07-28T11:00:46;3.33;;;1.90;;
4122;SDS011;2075;51.062;6.920;2023-07-28T11:03:31;2.83;;;2.63;;
4122;SDS011;2075;51.062;6.920;2023-07-28T11:06:17;1.97;;;1.87;;
4122;SDS011;2075;51.062;6.920;2023-07-28T11:09:05;1.50;;;1.50;;
4122;SDS011;2075;51.062;6.920;2023-07-28T11:11:52;2.40;;;1.53;;
4122;SDS011;2075;51.062;6.920;2023-07-28T11:14:42;2.20;;;1.50;;
4122;SDS011;2075;51.062;6.920;2023-07-28T11:17:28;1.43;;;1.27;;
4122;SDS011;2075;51.062;6.920;2023-07-28T11:20:15;1.37;;;1.27;;
4122;SDS011;2075;51.062;6.920;2023-07-28T11:23:01;1.40;;;1.20;;
4122;SDS011;2075;51.062;6.920;2023-07-28T11:25:48;1.90;;;1.43;;
4122;SDS011;2075;51.062;6.920;2023-07-28T11:28:34;1.20;;;1.20;;
4122;SDS011;2075;51.062;6.920;2023-07-28T11:31:24;1.37;;;1.17;;
4122;SDS011;2075;51.062;6.920;2023-07-28T11:34:12;1.20;;;1.20;;
4122;SDS011;2075;51.062;6.920;2023-07-28T11:36:58;1.90;;;1.30;;
4122;SDS011;2075;51.062;6.920;2023-07-28T11:39:44;7.50;;;1.40;;
4122;SDS011;2075;51.062;6.920;2023-07-28T11:42:29;1.73;;;1.13;;
4122;SDS011;2075;51.062;6.920;2023-07-28T11:45:16;1.40;;;1.40;;
4122;SDS011;2075;51.062;6.920;2023-07-28T11:48:05;1.53;;;1.53;;
4122;SDS011;2075;51.062;6.920;2023-07-28T11:50:51;2.30;;;1.50;;
4122;SDS011;2075;51.062;6.920;2023-07-28T11:53:37;2.73;;;2.53;;
4122;SDS011;2075;51.062;6.920;2023-07-28T11:56:24;2.20;;;2.10;;
4122;SDS011;2075;51.062;6.920;2023-07-28T11:59:14;1.10;;;1.10;;
4122;SDS011;2075;51.062;6.920;2023-07-28T12:02:00;1.10;;;1.10;;
4122;SDS011;2075;51.062;6.920;2023-07-28T12:04:50;1.50;;;1.40;;
4122;SDS011;2075;51.062;6.920;2023-07-28T12:07:37;1.50;;;1.50;;
4122;SDS011;2075;51.062;6.920;2023-07-28T12:10:23;1.87;;;1.77;;
4122;SDS011;2075;51.062;6.920;2023-07-28T12:13:08;1.60;;;1.60;;
4122;SDS011;2075;51.062;6.920;2023-07-28T12:15:54;1.63;;;1.43;;
4122;SDS011;2075;51.062;6.920;2023-07-28T12:18:40;1.73;;;1.33;;
4122;SDS011;2075;51.062;6.920;2023-07-28T12:21:26;1.40;;;1.33;;
4122;SDS011;2075;51.062;6.920;2023-07-28T12:24:12;1.37;;;1.00;;
4122;SDS011;2075;51.062;6.920;2023-07-28T12:26:57;1.20;;;1.17;;
4122;SDS011;2075;51.062;6.920;2023-07-28T12:29:43;1.10;;;1.10;;
4122;SDS011;2075;51.062;6.920;2023-07-28T12:32:28;1.40;;;1.30;;
4122;SDS011;2075;51.062;6.920;2023-07-28T12:35:14;1.03;;;1.03;;
4122;SDS011;2075;51.062;6.920;2023-07-28T12:38:01;1.30;;;1.20;;
4122;SDS011;2075;51.062;6.920;2023-07-28T12:40:48;1.23;;;1.20;;
4122;SDS011;2075;51.062;6.920;2023-07-28T12:43:34;1.37;;;1.37;;
4122;SDS011;2075;51.062;6.920;2023-07-28T12:46:19;1.43;;;1.40;;
4122;SDS011;2075;51.062;6.920;2023-07-28T12:49:06;1.43;;;1.33;;
4122;SDS011;2075;51.062;6.920;2023-07-28T12:51:51;1.93;;;1.37;;
4122;SDS011;2075;51.062;6.920;2023-07-28T12:54:38;1.47;;;1.20;;
4122;SDS011;2075;51.062;6.920;2023-07-28T12:57:26;1.07;;;1.07;;
4122;SDS011;2075;51.062;6.920;2023-07-28T13:00:12;1.47;;;1.37;;
4122;SDS011;2075;51.062;6.920;2023-07-28T13:02:59;1.40;;;1.30;;
4122;SDS011;2075;51.062;6.920;2023-07-28T13:05:45;1.30;;;1.30;;
4122;SDS011;2075;51.062;6.920;2023-07-28T13:08:32;2.00;;;1.30;;
4122;SDS011;2075;51.062;6.920;2023-07-28T13:11:19;1.90;;;1.80;;
4122;SDS011;2075;51.062;6.920;2023-07-28T13:14:04;1.97;;;1.70;;
4122;SDS011;2075;51.062;6.920;2023-07-28T13:16:49;1.80;;;1.60;;
4122;SDS011;2075;51.062;6.920;2023-07-28T13:19:35;1.50;;;1.50;;
4122;SDS011;2075;51.062;6.920;2023-07-28T13:22:20;1.50;;;1.40;;
4122;SDS011;2075;51.062;6.920;2023-07-28T13:25:06;1.73;;;1.70;;
4122;SDS011;2075;51.062;6.920;2023-07-28T13:27:53;1.50;;;1.50;;
4122;SDS011;2075;51.062;6.920;2023-07-28T13:30:39;5.53;;;1.60;;
4122;SDS011;2075;51.062;6.920;2023-07-28T13:33:24;1.53;;;1.53;;
4122;SDS011;2075;51.062;6.920;2023-07-28T13:36:11;1.57;;;1.50;;
4122;SDS011;2075;51.062;6.920;2023-07-28T13:38:57;2.70;;;1.50;;
4122;SDS011;2075;51.062;6.920;2023-07-28T13:41:42;1.40;;;1.30;;
4122;SDS011;2075;51.062;6.920;2023-07-28T13:44:29;1.70;;;1.70;;
4122;SDS011;2075;51.062;6.920;2023-07-28T13:47:14;3.63;;;1.50;;
4122;SDS011;2075;51.062;6.920;2023-07-28T13:50:00;1.50;;;1.40;;
4122;SDS011;2075;51.062;6.920;2023-07-28T13:52:45;1.30;;;1.30;;
4122;SDS011;2075;51.062;6.920;2023-07-28T13:55:31;1.60;;;1.60;;
4122;SDS011;2075;51.062;6.920;2023-07-28T13:58:16;1.77;;;1.50;;
4122;SDS011;2075;51.062;6.920;2023-07-28T14:01:04;1.30;;;1.30;;
4122;SDS011;2075;51.062;6.920;2023-07-28T14:03:49;2.70;;;1.50;;
4122;SDS011;2075;51.062;6.920;2023-07-28T14:06:34;1.37;;;1.37;;
4122;SDS011;2075;51.062;6.920;2023-07-28T14:09:20;5.13;;;1.40;;
4122;SDS011;2075;51.062;6.920;2023-07-28T14:12:06;1.50;;;1.50;;
4122;SDS011;2075;51.062;6.920;2023-07-28T14:14:52;1.70;;;1.70;;
4122;SDS011;2075;51.062;6.920;2023-07-28T14:17:39;1.33;;;1.23;;
4122;SDS011;2075;51.062;6.920;2023-07-28T14:20:24;1.43;;;1.33;;
4122;SDS011;2075;51.062;6.920;2023-07-28T14:23:22;1.90;;;1.83;;
4122;SDS011;2075;51.062;6.920;2023-07-28T14:26:09;1.40;;;1.40;;
4122;SDS011;2075;51.062;6.920;2023-07-28T14:28:54;1.70;;;1.60;;
4122;SDS011;2075;51.062;6.920;2023-07-28T14:31:40;1.17;;;1.17;;
4122;SDS011;2075;51.062;6.920;2023-07-28T14:34:27;1.70;;;1.60;;
4122;SDS011;2075;51.062;6.920;2023-07-28T14:37:12;1.30;;;1.30;;
4122;SDS011;2075;51.062;6.920;2023-07-28T14:40:00;4.33;;;1.27;;
4122;SDS011;2075;51.062;6.920;2023-07-28T14:42:46;1.50;;;1.40;;
4122;SDS011;2075;51.062;6.920;2023-07-28T14:45:31;1.37;;;1.37;;
4122;SDS011;2075;51.062;6.920;2023-07-28T14:48:17;2.30;;;1.70;;
4122;SDS011;2075;51.062;6.920;2023-07-28T14:51:05;2.80;;;1.70;;
4122;SDS011;2075;51.062;6.920;2023-07-28T14:53:51;2.00;;;1.60;;
4122;SDS011;2075;51.062;6.920;2023-07-28T14:56:38;2.60;;;2.40;;
4122;SDS011;2075;51.062;6.920;2023-07-28T14:59:25;4.97;;;2.10;;
4122;SDS011;2075;51.062;6.920;2023-07-28T15:02:12;1.90;;;1.80;;
4122;SDS011;2075;51.062;6.920;2023-07-28T15:04:58;1.80;;;1.70;;
4122;SDS011;2075;51.062;6.920;2023-07-28T15:07:45;3.03;;;1.90;;
4122;SDS011;2075;51.062;6.920;2023-07-28T15:10:32;4.50;;;2.60;;
4122;SDS011;2075;51.062;6.920;2023-07-28T15:13:18;2.10;;;1.90;;
4122;SDS011;2075;51.062;6.920;2023-07-28T15:16:32;1.87;;;1.77;;
4122;SDS011;2075;51.062;6.920;2023-07-28T15:19:19;4.27;;;2.40;;
4122;SDS011;2075;51.062;6.920;2023-07-28T15:22:05;4.20;;;2.67;;
4122;SDS011;2075;51.062;6.920;2023-07-28T15:24:52;2.67;;;1.87;;
4122;SDS011;2075;51.062;6.920;2023-07-28T15:27:38;2.20;;;2.00;;
4122;SDS011;2075;51.062;6.920;2023-07-28T15:30:26;2.23;;;1.90;;
4122;SDS011;2075;51.062;6.920;2023-07-28T15:33:12;2.40;;;2.30;;
4122;SDS011;2075;51.062;6.920;2023-07-28T15:35:59;2.20;;;2.10;;
4122;SDS011;2075;51.062;6.920;2023-07-28T15:38:45;2.40;;;2.20;;
4122;SDS011;2075;51.062;6.920;2023-07-28T15:41:33;2.27;;;2.17;;
4122;SDS011;2075;51.062;6.920;2023-07-28T15:44:23;2.50;;;2.30;;
4122;SDS011;2075;51.062;6.920;2023-07-28T15:47:09;1.90;;;1.90;;
4122;SDS011;2075;51.062;6.920;2023-07-28T15:49:55;1.80;;;1.80;;
4122;SDS011;2075;51.062;6.920;2023-07-28T15:52:40;2.80;;;2.60;;
4122;SDS011;2075;51.062;6.920;2023-07-28T15:55:26;3.47;;;2.60;;
4122;SDS011;2075;51.062;6.920;2023-07-28T15:58:12;3.03;;;2.40;;
4122;SDS011;2075;51.062;6.920;2023-07-28T16:00:58;2.40;;;1.70;;
4122;SDS011;2075;51.062;6.920;2023-07-28T16:03:45;2.47;;;2.27;;
4122;SDS011;2075;51.062;6.920;2023-07-28T16:06:34;3.53;;;2.73;;
4122;SDS011;2075;51.062;6.920;2023-07-28T16:09:19;3.57;;;2.70;;
4122;SDS011;2075;51.062;6.920;2023-07-28T16:12:06;6.20;;;2.33;;
4122;SDS011;2075;51.062;6.920;2023-07-28T16:14:56;5.70;;;1.70;;
4122;SDS011;2075;51.062;6.920;2023-07-28T16:17:46;1.10;;;1.10;;
4122;SDS011;2075;51.062;6.920;2023-07-28T16:20:36;1.37;;;1.27;;
4122;SDS011;2075;51.062;6.920;2023-07-28T16:23:24;1.20;;;1.20;;
4122;SDS011;2075;51.062;6.920;2023-07-28T16:26:13;1.57;;;1.30;;
4122;SDS011;2075;51.062;6.920;2023-07-28T16:29:04;1.10;;;1.10;;
4122;SDS011;2075;51.062;6.920;2023-07-28T16:31:52;1.17;;;1.13;;
4122;SDS011;2075;51.062;6.920;2023-07-28T16:34:38;1.10;;;1.10;;
4122;SDS011;2075;51.062;6.920;2023-07-28T16:37:23;1.10;;;1.10;;
4122;SDS011;2075;51.062;6.920;2023-07-28T16:40:09;1.30;;;1.30;;
4122;SDS011;2075;51.062;6.920;2023-07-28T16:42:55;1.60;;;1.50;;
4122;SDS011;2075;51.062;6.920;2023-07-28T16:45:42;1.70;;;1.70;;
4122;SDS011;2075;51.062;6.920;2023-07-28T16:48:29;1.70;;;1.60;;
4122;SDS011;2075;51.062;6.920;2023-07-28T16:51:17;2.17;;;2.07;;
4122;SDS011;2075;51.062;6.920;2023-07-28T16:54:03;2.10;;;2.00;;
4122;SDS011;2075;51.062;6.920;2023-07-28T16:56:50;1.73;;;1.50;;
4122;SDS011;2075;51.062;6.920;2023-07-28T16:59:36;1.50;;;1.40;;
4122;SDS011;2075;51.062;6.920;2023-07-28T17:02:21;1.80;;;1.23;;
4122;SDS011;2075;51.062;6.920;2023-07-28T17:05:09;1.30;;;1.30;;
4122;SDS011;2075;51.062;6.920;2023-07-28T17:07:54;1.40;;;1.40;;
4122;SDS011;2075;51.062;6.920;2023-07-28T17:10:40;2.60;;;1.30;;
4122;SDS011;2075;51.062;6.920;2023-07-28T17:13:28;2.20;;;1.60;;
4122;SDS011;2075;51.062;6.920;2023-07-28T17:16:16;2.20;;;1.40;;
4122;SDS011;2075;51.062;6.920;2023-07-28T17:19:02;1.70;;;1.60;;
4122;SDS011;2075;51.062;6.920;2023-07-28T17:21:50;1.40;;;1.40;;